sensor_id;sensor_type;location;lat;lon;timestamp;pressure;altitude;pressure_sealevel;temperature;humidity
10006;BME280;5042;42.626;23.382;2023-10-19T00:00:05;150978.22;;;7.48;100.00
10006;BME280;5042;42.626;23.382;2023-10-19T00:02:46;150995.06;;;7.55;100.00
10006;BME280;5042;42.626;23.382;2023-10-19T00:05:14;151014.47;;;7.62;100.00
10006;BME280;5042;42.626;23.382;2023-10-19T00:07:40;151023.50;;;7.66;100.00
10006;BME280;5042;42.626;23.382;2023-10-19T00:10:07;151045.50;;;7.75;100.00
10006;BME280;5042;42.626;23.382;2023-10-19T00:12:33;151053.25;;;7.78;100.00
10006;BME280;5042;42.626;23.382;2023-10-19T00:15:02;151066.19;;;7.83;100.00
10006;BME280;5042;42.626;23.382;2023-10-19T00:17:29;151053.25;;;7.78;100.00
10006;BME280;5042;42.626;23.382;2023-10-19T00:19:58;151046.78;;;7.75;100.00
10006;BME280;5042;42.626;23.382;2023-10-19T00:22:43;151035.13;;;7.71;100.00
10006;BME280;5042;42.626;23.382;2023-10-19T00:25:11;151029.97;;;7.69;100.00
10006;BME280;5042;42.626;23.382;2023-10-19T00:27:38;151032.56;;;7.70;100.00
10006;BME280;5042;42.626;23.382;2023-10-19T00:30:10;151036.47;;;7.71;100.00
10006;BME280;5042;42.626;23.382;2023-10-19T00:32:37;151029.97;;;7.69;100.00
10006;BME280;5042;42.626;23.382;2023-10-19T00:35:06;151048.06;;;7.76;100.00
10006;BME280;5042;42.626;23.382;2023-10-19T00:37:53;151046.78;;;7.75;100.00
10006;BME280;5042;42.626;23.382;2023-10-19T00:40:41;151058.44;;;7.80;100.00
10006;BME280;5042;42.626;23.382;2023-10-19T00:43:12;151072.69;;;7.85;100.00
10006;BME280;5042;42.626;23.382;2023-10-19T00:45:44;151081.75;;;7.89;100.00
10006;BME280;5042;42.626;23.382;2023-10-19T00:48:13;151048.06;;;7.76;100.00
10006;BME280;5042;42.626;23.382;2023-10-19T00:50:43;151072.69;;;7.85;100.00
10006;BME280;5042;42.626;23.382;2023-10-19T00:53:13;151066.19;;;7.83;100.00
10006;BME280;5042;42.626;23.382;2023-10-19T00:55:41;151066.19;;;7.83;100.00
10006;BME280;5042;42.626;23.382;2023-10-19T01:28:08;151076.56;;;7.87;100.00
10006;BME280;5042;42.626;23.382;2023-10-19T01:30:36;151102.47;;;7.97;100.00
10006;BME280;5042;42.626;23.382;2023-10-19T01:33:03;151130.91;;;8.08;100.00
10006;BME280;5042;42.626;23.382;2023-10-19T01:35:38;151136.09;;;8.11;100.00
10006;BME280;5042;42.626;23.382;2023-10-19T01:38:18;151128.34;;;8.07;100.00
10006;BME280;5042;42.626;23.382;2023-10-19T01:40:45;151123.16;;;8.05;100.00
10006;BME280;5042;42.626;23.382;2023-10-19T01:43:13;151143.84;;;8.14;100.00
10006;BME280;5042;42.626;23.382;2023-10-19T01:45:46;151128.34;;;8.07;100.00
10006;BME280;5042;42.626;23.382;2023-10-19T01:48:14;151110.22;;;8.00;100.00
10006;BME280;5042;42.626;23.382;2023-10-19T01:50:41;151076.56;;;7.87;100.00
10006;BME280;5042;42.626;23.382;2023-10-19T01:53:08;151062.34;;;7.81;100.00
10006;BME280;5042;42.626;23.382;2023-10-19T01:55:41;151028.66;;;7.68;100.00
10006;BME280;5042;42.626;23.382;2023-10-19T01:58:07;151015.75;;;7.63;100.00
10006;BME280;5042;42.626;23.382;2023-10-19T02:00:37;151026.09;;;7.67;100.00
10006;BME280;5042;42.626;23.382;2023-10-19T02:03:06;151033.84;;;7.70;100.00
10006;BME280;5042;42.626;23.382;2023-10-19T02:05:33;151032.56;;;7.70;100.00
10006;BME280;5042;42.626;23.382;2023-10-19T02:08:05;151040.31;;;7.73;100.00
10006;BME280;5042;42.626;23.382;2023-10-19T02:10:33;151027.38;;;7.68;100.00
10006;BME280;5042;42.626;23.382;2023-10-19T02:12:59;151026.09;;;7.67;100.00
10006;BME280;5042;42.626;23.382;2023-10-19T02:15:32;151040.31;;;7.73;100.00
10006;BME280;5042;42.626;23.382;2023-10-19T02:18:02;151042.94;;;7.74;100.00
10006;BME280;5042;42.626;23.382;2023-10-19T02:20:28;151053.25;;;7.78;100.00
10006;BME280;5042;42.626;23.382;2023-10-19T02:22:55;151048.06;;;7.76;100.00
10006;BME280;5042;42.626;23.382;2023-10-19T02:25:23;151071.38;;;7.85;100.00
10006;BME280;5042;42.626;23.382;2023-10-19T02:27:53;151063.63;;;7.82;100.00
10006;BME280;5042;42.626;23.382;2023-10-19T02:30:19;151057.16;;;7.79;100.00
10006;BME280;5042;42.626;23.382;2023-10-19T02:32:46;151066.19;;;7.83;100.00
10006;BME280;5042;42.626;23.382;2023-10-19T02:35:15;151041.59;;;7.73;100.00
10006;BME280;5042;42.626;23.382;2023-10-19T02:37:41;151070.09;;;7.84;100.00
10006;BME280;5042;42.626;23.382;2023-10-19T02:40:08;151013.19;;;7.62;100.00
10006;BME280;5042;42.626;23.382;2023-10-19T02:42:45;151019.63;;;7.64;100.00
10006;BME280;5042;42.626;23.382;2023-10-19T02:45:14;151017.03;;;7.63;100.00
10006;BME280;5042;42.626;23.382;2023-10-19T02:47:42;151040.31;;;7.73;100.00
10006;BME280;5042;42.626;23.382;2023-10-19T02:50:09;151008.00;;;7.60;100.00
10006;BME280;5042;42.626;23.382;2023-10-19T02:52:40;150993.72;;;7.54;100.00
10006;BME280;5042;42.626;23.382;2023-10-19T02:55:09;151000.19;;;7.57;100.00
10006;BME280;5042;42.626;23.382;2023-10-19T02:57:35;151009.28;;;7.60;100.00
10006;BME280;5042;42.626;23.382;2023-10-19T03:00:05;150996.34;;;7.55;100.00
10006;BME280;5042;42.626;23.382;2023-10-19T03:02:38;150957.50;;;7.40;100.00
10006;BME280;5042;42.626;23.382;2023-10-19T03:05:06;150963.97;;;7.42;100.00
10006;BME280;5042;42.626;23.382;2023-10-19T03:07:41;150970.47;;;7.45;100.00
10006;BME280;5042;42.626;23.382;2023-10-19T03:10:10;150942.00;;;7.34;100.00
10006;BME280;5042;42.626;23.382;2023-10-19T03:12:49;150971.75;;;7.46;100.00
10006;BME280;5042;42.626;23.382;2023-10-19T03:15:15;150975.63;;;7.47;100.00
10006;BME280;5042;42.626;23.382;2023-10-19T03:17:43;150978.22;;;7.48;100.00
10006;BME280;5042;42.626;23.382;2023-10-19T03:20:09;150971.75;;;7.46;100.00
10006;BME280;5042;42.626;23.382;2023-10-19T03:22:37;150957.50;;;7.40;100.00
10006;BME280;5042;42.626;23.382;2023-10-19T03:25:06;150970.47;;;7.45;100.00
10006;BME280;5042;42.626;23.382;2023-10-19T03:28:01;150957.50;;;7.40;100.00
10006;BME280;5042;42.626;23.382;2023-10-19T03:30:33;150952.31;;;7.38;100.00
10006;BME280;5042;42.626;23.382;2023-10-19T03:33:04;150903.19;;;7.18;100.00
10006;BME280;5042;42.626;23.382;2023-10-19T03:35:31;150991.16;;;7.53;100.00
10006;BME280;5042;42.626;23.382;2023-10-19T03:38:00;150991.16;;;7.53;100.00
10006;BME280;5042;42.626;23.382;2023-10-19T03:40:34;150996.34;;;7.55;100.00
10006;BME280;5042;42.626;23.382;2023-10-19T03:43:04;150983.41;;;7.50;100.00
10006;BME280;5042;42.626;23.382;2023-10-19T03:45:42;150988.59;;;7.52;100.00
10006;BME280;5042;42.626;23.382;2023-10-19T03:48:17;150966.59;;;7.43;100.00
10006;BME280;5042;42.626;23.382;2023-10-19T03:50:44;150926.47;;;7.28;100.00
10006;BME280;5042;42.626;23.382;2023-10-19T03:53:13;150939.38;;;7.33;100.00
10006;BME280;5042;42.626;23.382;2023-10-19T03:55:42;150927.75;;;7.28;100.00
10006;BME280;5042;42.626;23.382;2023-10-19T03:58:09;150945.84;;;7.35;100.00
10006;BME280;5042;42.626;23.382;2023-10-19T04:00:37;150944.56;;;7.35;100.00
10006;BME280;5042;42.626;23.382;2023-10-19T04:03:04;150936.81;;;7.32;100.00
10006;BME280;5042;42.626;23.382;2023-10-19T04:05:31;150960.13;;;7.41;100.00
10006;BME280;5042;42.626;23.382;2023-10-19T04:08:04;150952.31;;;7.38;100.00
10006;BME280;5042;42.626;23.382;2023-10-19T04:10:38;150960.13;;;7.41;100.00
10006;BME280;5042;42.626;23.382;2023-10-19T04:13:11;150991.16;;;7.53;100.00
10006;BME280;5042;42.626;23.382;2023-10-19T04:15:38;150839.81;;;6.93;100.00
10006;BME280;5042;42.626;23.382;2023-10-19T04:18:06;150958.84;;;7.40;100.00
10006;BME280;5042;42.626;23.382;2023-10-19T04:20:37;150949.75;;;7.37;100.00
10006;BME280;5042;42.626;23.382;2023-10-19T04:23:20;150855.31;;;6.99;100.00
10006;BME280;5042;42.626;23.382;2023-10-19T04:25:47;150953.66;;;7.38;100.00
10006;BME280;5042;42.626;23.382;2023-10-19T04:28:16;150963.97;;;7.42;100.00
10006;BME280;5042;42.626;23.382;2023-10-19T04:30:46;150970.47;;;7.45;100.00
10006;BME280;5042;42.626;23.382;2023-10-19T04:33:13;150996.34;;;7.55;100.00
10006;BME280;5042;42.626;23.382;2023-10-19T04:35:44;151017.03;;;7.63;100.00
10006;BME280;5042;42.626;23.382;2023-10-19T04:38:11;151001.53;;;7.57;100.00
10006;BME280;5042;42.626;23.382;2023-10-19T04:40:38;151014.47;;;7.62;100.00
10006;BME280;5042;42.626;23.382;2023-10-19T04:43:05;150998.91;;;7.56;100.00
10006;BME280;5042;42.626;23.382;2023-10-19T04:45:33;150980.78;;;7.49;100.00
10006;BME280;5042;42.626;23.382;2023-10-19T04:48:00;150952.31;;;7.38;100.00
10006;BME280;5042;42.626;23.382;2023-10-19T04:50:29;150960.13;;;7.41;100.00
10006;BME280;5042;42.626;23.382;2023-10-19T04:52:56;150978.22;;;7.48;100.00
10006;BME280;5042;42.626;23.382;2023-10-19T04:55:23;150987.25;;;7.52;100.00
10006;BME280;5042;42.626;23.382;2023-10-19T04:57:50;150996.34;;;7.55;100.00
10006;BME280;5042;42.626;23.382;2023-10-19T05:00:17;150971.75;;;7.46;100.00
10006;BME280;5042;42.626;23.382;2023-10-19T05:02:47;151001.53;;;7.57;100.00
10006;BME280;5042;42.626;23.382;2023-10-19T05:05:14;150980.78;;;7.49;100.00
10006;BME280;5042;42.626;23.382;2023-10-19T05:07:42;150985.97;;;7.51;100.00
10006;BME280;5042;42.626;23.382;2023-10-19T05:10:09;151006.72;;;7.59;100.00
10006;BME280;5042;42.626;23.382;2023-10-19T05:12:36;151031.28;;;7.69;100.00
10006;BME280;5042;42.626;23.382;2023-10-19T05:15:04;151018.34;;;7.64;100.00
10006;BME280;5042;42.626;23.382;2023-10-19T05:17:31;151018.34;;;7.64;100.00
10006;BME280;5042;42.626;23.382;2023-10-19T05:19:59;151035.13;;;7.71;100.00
10006;BME280;5042;42.626;23.382;2023-10-19T05:22:26;151032.56;;;7.70;100.00
10006;BME280;5042;42.626;23.382;2023-10-19T05:24:55;151044.22;;;7.74;100.00
10006;BME280;5042;42.626;23.382;2023-10-19T05:27:21;151071.38;;;7.85;100.00
10006;BME280;5042;42.626;23.382;2023-10-19T05:29:49;151115.41;;;8.02;100.00
10006;BME280;5042;42.626;23.382;2023-10-19T05:32:16;151143.84;;;8.14;100.00
10006;BME280;5042;42.626;23.382;2023-10-19T05:34:44;151193.09;;;8.33;100.00
10006;BME280;5042;42.626;23.382;2023-10-19T05:37:12;151235.84;;;8.50;100.00
10006;BME280;5042;42.626;23.382;2023-10-19T05:39:39;151287.63;;;8.70;100.00
10006;BME280;5042;42.626;23.382;2023-10-19T05:42:05;151317.41;;;8.82;100.00
10006;BME280;5042;42.626;23.382;2023-10-19T05:44:32;151356.28;;;8.98;100.00
10006;BME280;5042;42.626;23.382;2023-10-19T05:47:00;151423.66;;;9.24;100.00
10006;BME280;5042;42.626;23.382;2023-10-19T05:49:27;151522.09;;;9.63;100.00
10006;BME280;5042;42.626;23.382;2023-10-19T05:51:54;151536.41;;;9.69;100.00
10006;BME280;5042;42.626;23.382;2023-10-19T05:54:23;151602.50;;;9.95;100.00
10006;BME280;5042;42.626;23.382;2023-10-19T05:56:50;151656.94;;;10.16;100.00
10006;BME280;5042;42.626;23.382;2023-10-19T05:59:17;151707.53;;;10.36;100.00
10006;BME280;5042;42.626;23.382;2023-10-19T06:01:44;151646.56;;;10.12;100.00
10006;BME280;5042;42.626;23.382;2023-10-19T06:04:13;151558.44;;;9.77;100.00
10006;BME280;5042;42.626;23.382;2023-10-19T06:06:40;151719.22;;;10.41;100.00
10006;BME280;5042;42.626;23.382;2023-10-19T06:09:07;151772.41;;;10.62;100.00
10006;BME280;5042;42.626;23.382;2023-10-19T06:11:36;151773.69;;;10.63;100.00
10006;BME280;5042;42.626;23.382;2023-10-19T06:14:07;151816.47;;;10.79;100.00
10006;BME280;5042;42.626;23.382;2023-10-19T06:16:35;151812.63;;;10.78;100.00
10006;BME280;5042;42.626;23.382;2023-10-19T06:19:03;151821.69;;;10.81;100.00
10006;BME280;5042;42.626;23.382;2023-10-19T06:21:30;151793.16;;;10.70;100.00
10006;BME280;5042;42.626;23.382;2023-10-19T06:23:58;151707.53;;;10.36;100.00
10006;BME280;5042;42.626;23.382;2023-10-19T06:26:25;151672.47;;;10.23;100.00
10006;BME280;5042;42.626;23.382;2023-10-19T06:28:53;151597.31;;;9.93;100.00
10006;BME280;5042;42.626;23.382;2023-10-19T06:31:24;151577.88;;;9.85;100.00
10006;BME280;5042;42.626;23.382;2023-10-19T06:33:51;151553.25;;;9.75;100.00
10006;BME280;5042;42.626;23.382;2023-10-19T06:36:18;151555.81;;;9.76;100.00
10006;BME280;5042;42.626;23.382;2023-10-19T06:38:45;151570.06;;;9.82;100.00
10006;BME280;5042;42.626;23.382;2023-10-19T06:41:14;151590.84;;;9.90;100.00
10006;BME280;5042;42.626;23.382;2023-10-19T06:43:43;151620.66;;;10.02;100.00
10006;BME280;5042;42.626;23.382;2023-10-19T06:46:12;151641.38;;;10.10;100.00
10006;BME280;5042;42.626;23.382;2023-10-19T06:48:40;151592.13;;;9.91;100.00
10006;BME280;5042;42.626;23.382;2023-10-19T06:51:08;151597.31;;;9.93;100.00
10006;BME280;5042;42.626;23.382;2023-10-19T06:53:34;151633.59;;;10.07;100.00
10006;BME280;5042;42.626;23.382;2023-10-19T06:56:01;151673.81;;;10.23;100.00
10006;BME280;5042;42.626;23.382;2023-10-19T06:58:29;151680.28;;;10.26;100.00
10006;BME280;5042;42.626;23.382;2023-10-19T07:00:56;151672.47;;;10.23;100.00
10006;BME280;5042;42.626;23.382;2023-10-19T07:03:26;151680.28;;;10.26;100.00
10006;BME280;5042;42.626;23.382;2023-10-19T07:05:54;151682.88;;;10.27;100.00
10006;BME280;5042;42.626;23.382;2023-10-19T07:08:22;151677.66;;;10.25;100.00
10006;BME280;5042;42.626;23.382;2023-10-19T07:10:49;151631.03;;;10.06;100.00
10006;BME280;5042;42.626;23.382;2023-10-19T07:13:16;151663.44;;;10.19;100.00
10006;BME280;5042;42.626;23.382;2023-10-19T07:15:44;151729.59;;;10.45;100.00
10006;BME280;5042;42.626;23.382;2023-10-19T07:18:11;151789.28;;;10.69;100.00
10006;BME280;5042;42.626;23.382;2023-10-19T07:20:40;151864.47;;;10.98;100.00
10006;BME280;5042;42.626;23.382;2023-10-19T07:23:08;151916.41;;;11.19;100.00
10006;BME280;5042;42.626;23.382;2023-10-19T07:25:44;151948.81;;;11.32;100.00
10006;BME280;5042;42.626;23.382;2023-10-19T07:28:13;151942.31;;;11.29;100.00
10006;BME280;5042;42.626;23.382;2023-10-19T07:30:40;151973.50;;;11.41;100.00
10006;BME280;5042;42.626;23.382;2023-10-19T07:33:08;152033.16;;;11.65;100.00
10006;BME280;5042;42.626;23.382;2023-10-19T07:35:35;152100.75;;;11.92;100.00
10006;BME280;5042;42.626;23.382;2023-10-19T07:38:05;152151.38;;;12.12;100.00
10006;BME280;5042;42.626;23.382;2023-10-19T07:40:33;152230.56;;;12.43;100.00
10006;BME280;5042;42.626;23.382;2023-10-19T07:43:00;152174.75;;;12.21;100.00
10006;BME280;5042;42.626;23.382;2023-10-19T07:45:27;152208.53;;;12.34;100.00
10006;BME280;5042;42.626;23.382;2023-10-19T07:47:54;152316.34;;;12.77;100.00
10006;BME280;5042;42.626;23.382;2023-10-19T07:50:21;152389.09;;;13.05;100.00
10006;BME280;5042;42.626;23.382;2023-10-19T07:52:50;152431.94;;;13.22;100.00
10006;BME280;5042;42.626;23.382;2023-10-19T07:55:20;152408.56;;;13.13;100.00
10006;BME280;5042;42.626;23.382;2023-10-19T07:57:49;152383.88;;;13.03;100.00
10006;BME280;5042;42.626;23.382;2023-10-19T08:00:18;152487.88;;;13.44;100.00
10006;BME280;5042;42.626;23.382;2023-10-19T08:02:45;152530.75;;;13.61;100.00
10006;BME280;5042;42.626;23.382;2023-10-19T08:05:12;152577.56;;;13.79;100.00
10006;BME280;5042;42.626;23.382;2023-10-19T08:07:39;152604.84;;;13.90;100.00
10006;BME280;5042;42.626;23.382;2023-10-19T08:10:09;152595.78;;;13.87;100.00
10006;BME280;5042;42.626;23.382;2023-10-19T08:12:38;152555.44;;;13.71;100.00
10006;BME280;5042;42.626;23.382;2023-10-19T08:15:07;152537.25;;;13.64;100.00
10006;BME280;5042;42.626;23.382;2023-10-19T08:17:36;152597.06;;;13.87;100.00
10006;BME280;5042;42.626;23.382;2023-10-19T08:20:05;152530.75;;;13.61;100.00
10006;BME280;5042;42.626;23.382;2023-10-19T08:22:34;152626.97;;;13.99;100.00
10006;BME280;5042;42.626;23.382;2023-10-19T08:25:03;152671.16;;;14.16;100.00
10006;BME280;5042;42.626;23.382;2023-10-19T08:27:38;152651.66;;;14.09;100.00
10006;BME280;5042;42.626;23.382;2023-10-19T08:30:07;152647.78;;;14.07;100.00
10006;BME280;5042;42.626;23.382;2023-10-19T08:32:35;152679.00;;;14.19;100.00
10006;BME280;5042;42.626;23.382;2023-10-19T08:35:02;152737.47;;;14.42;100.00
10006;BME280;5042;42.626;23.382;2023-10-19T08:37:31;152777.88;;;14.58;100.00
10006;BME280;5042;42.626;23.382;2023-10-19T08:39:59;152802.56;;;14.68;100.00
10006;BME280;5042;42.626;23.382;2023-10-19T08:42:26;152828.63;;;14.78;100.00
10006;BME280;5042;42.626;23.382;2023-10-19T08:44:57;152841.63;;;14.83;100.00
10006;BME280;5042;42.626;23.382;2023-10-19T08:47:25;152845.50;;;14.85;100.00
10006;BME280;5042;42.626;23.382;2023-10-19T08:49:53;152876.75;;;14.97;100.00
10006;BME280;5042;42.626;23.382;2023-10-19T08:52:20;152898.84;;;15.06;100.00
10006;BME280;5042;42.626;23.382;2023-10-19T08:54:49;152901.47;;;15.07;100.00
10006;BME280;5042;42.626;23.382;2023-10-19T08:57:15;152881.94;;;14.99;100.00
10006;BME280;5042;42.626;23.382;2023-10-19T08:59:44;152891.06;;;15.03;100.00
10006;BME280;5042;42.626;23.382;2023-10-19T09:02:14;152885.84;;;15.01;100.00
10006;BME280;5042;42.626;23.382;2023-10-19T09:04:42;152956.13;;;15.29;100.00
10006;BME280;5042;42.626;23.382;2023-10-19T09:07:09;153005.56;;;15.48;100.00
10006;BME280;5042;42.626;23.382;2023-10-19T09:09:36;153000.38;;;15.46;100.00
10006;BME280;5042;42.626;23.382;2023-10-19T09:12:06;153000.38;;;15.46;100.00
10006;BME280;5042;42.626;23.382;2023-10-19T09:14:34;153008.16;;;15.49;100.00
10006;BME280;5042;42.626;23.382;2023-10-19T09:17:05;153043.31;;;15.63;100.00
10006;BME280;5042;42.626;23.382;2023-10-19T09:19:38;153027.72;;;15.57;100.00
10006;BME280;5042;42.626;23.382;2023-10-19T09:22:06;153091.53;;;15.82;100.00
10006;BME280;5042;42.626;23.382;2023-10-19T09:24:43;153127.97;;;15.96;100.00
10006;BME280;5042;42.626;23.382;2023-10-19T09:27:10;153066.78;;;15.72;100.00
10006;BME280;5042;42.626;23.382;2023-10-19T09:29:38;153062.88;;;15.71;100.00
10006;BME280;5042;42.626;23.382;2023-10-19T09:32:07;152966.50;;;15.33;100.00
10006;BME280;5042;42.626;23.382;2023-10-19T09:34:35;152867.63;;;14.94;100.00
10006;BME280;5042;42.626;23.382;2023-10-19T09:37:03;152854.63;;;14.89;100.00
10006;BME280;5042;42.626;23.382;2023-10-19T09:39:31;152792.19;;;14.64;100.00
10006;BME280;5042;42.626;23.382;2023-10-19T09:42:02;152818.19;;;14.74;100.00
10006;BME280;5042;42.626;23.382;2023-10-19T09:44:37;152783.06;;;14.60;100.00
10006;BME280;5042;42.626;23.382;2023-10-19T09:47:10;152758.31;;;14.51;100.00
10006;BME280;5042;42.626;23.382;2023-10-19T09:49:39;152774.00;;;14.57;100.00
10006;BME280;5042;42.626;23.382;2023-10-19T09:52:08;152800.00;;;14.67;100.00
10006;BME280;5042;42.626;23.382;2023-10-19T09:54:47;152759.59;;;14.51;100.00
10006;BME280;5042;42.626;23.382;2023-10-19T09:57:20;152755.69;;;14.50;100.00
10006;BME280;5042;42.626;23.382;2023-10-19T09:59:51;152811.69;;;14.72;100.00
10006;BME280;5042;42.626;23.382;2023-10-19T10:02:22;152846.84;;;14.86;100.00
10006;BME280;5042;42.626;23.382;2023-10-19T10:04:49;152842.91;;;14.84;100.00
10006;BME280;5042;42.626;23.382;2023-10-19T10:07:17;152862.41;;;14.92;100.00
10006;BME280;5042;42.626;23.382;2023-10-19T10:09:45;152902.78;;;15.08;100.00
10006;BME280;5042;42.626;23.382;2023-10-19T10:12:16;152866.34;;;14.93;100.00
10006;BME280;5042;42.626;23.382;2023-10-19T10:14:54;152956.13;;;15.29;100.00
10006;BME280;5042;42.626;23.382;2023-10-19T10:17:21;152989.94;;;15.42;100.00
10006;BME280;5042;42.626;23.382;2023-10-19T10:19:49;153018.59;;;15.53;100.00
10006;BME280;5042;42.626;23.382;2023-10-19T10:22:21;152902.78;;;15.08;100.00
10006;BME280;5042;42.626;23.382;2023-10-19T10:24:53;153016.00;;;15.52;100.00
10006;BME280;5042;42.626;23.382;2023-10-19T10:27:21;153016.00;;;15.52;100.00
10006;BME280;5042;42.626;23.382;2023-10-19T10:29:56;153057.66;;;15.68;100.00
10006;BME280;5042;42.626;23.382;2023-10-19T10:32:43;153065.50;;;15.72;100.00
10006;BME280;5042;42.626;23.382;2023-10-19T10:35:10;153073.31;;;15.75;100.00
10006;BME280;5042;42.626;23.382;2023-10-19T10:37:38;153008.16;;;15.49;100.00
10006;BME280;5042;42.626;23.382;2023-10-19T10:40:06;153044.59;;;15.63;100.00
10006;BME280;5042;42.626;23.382;2023-10-19T10:42:33;153068.09;;;15.73;100.00
10006;BME280;5042;42.626;23.382;2023-10-19T10:45:01;153078.53;;;15.77;100.00
10006;BME280;5042;42.626;23.382;2023-10-19T10:47:30;153096.75;;;15.84;100.00
10006;BME280;5042;42.626;23.382;2023-10-19T10:50:00;152775.28;;;14.57;100.00
10006;BME280;5042;42.626;23.382;2023-10-19T10:52:28;153068.09;;;15.73;100.00
10006;BME280;5042;42.626;23.382;2023-10-19T10:54:57;153074.59;;;15.75;100.00
10006;BME280;5042;42.626;23.382;2023-10-19T10:57:30;153068.09;;;15.73;100.00
10006;BME280;5042;42.626;23.382;2023-10-19T11:00:03;153061.59;;;15.70;100.00
10006;BME280;5042;42.626;23.382;2023-10-19T11:02:32;153101.94;;;15.86;100.00
10006;BME280;5042;42.626;23.382;2023-10-19T11:04:58;153087.66;;;15.80;100.00
10006;BME280;5042;42.626;23.382;2023-10-19T11:07:25;153087.66;;;15.80;100.00
10006;BME280;5042;42.626;23.382;2023-10-19T11:09:52;153107.16;;;15.88;100.00
10006;BME280;5042;42.626;23.382;2023-10-19T11:12:21;153135.81;;;15.99;100.00
10006;BME280;5042;42.626;23.382;2023-10-19T11:14:53;153168.34;;;16.12;100.00
10006;BME280;5042;42.626;23.382;2023-10-19T11:17:20;153194.38;;;16.22;100.00
10006;BME280;5042;42.626;23.382;2023-10-19T11:19:53;153180.09;;;16.17;100.00
10006;BME280;5042;42.626;23.382;2023-10-19T11:22:21;153161.84;;;16.09;100.00
10006;BME280;5042;42.626;23.382;2023-10-19T11:24:50;153177.44;;;16.16;100.00
10006;BME280;5042;42.626;23.382;2023-10-19T11:27:24;153211.31;;;16.29;100.00
10006;BME280;5042;42.626;23.382;2023-10-19T11:29:56;153203.53;;;16.26;100.00
10006;BME280;5042;42.626;23.382;2023-10-19T11:32:24;153237.34;;;16.39;100.00
10006;BME280;5042;42.626;23.382;2023-10-19T11:34:52;153234.78;;;16.38;100.00
10006;BME280;5042;42.626;23.382;2023-10-19T11:37:18;153267.31;;;16.51;100.00
10006;BME280;5042;42.626;23.382;2023-10-19T11:39:46;153258.22;;;16.47;100.00
10006;BME280;5042;42.626;23.382;2023-10-19T11:42:15;153272.53;;;16.53;100.00
10006;BME280;5042;42.626;23.382;2023-10-19T11:44:44;153295.97;;;16.62;100.00
10006;BME280;5042;42.626;23.382;2023-10-19T11:47:11;153316.84;;;16.70;100.00
10006;BME280;5042;42.626;23.382;2023-10-19T11:49:38;153318.16;;;16.71;100.00
10006;BME280;5042;42.626;23.382;2023-10-19T11:52:06;153362.47;;;16.88;100.00
10006;BME280;5042;42.626;23.382;2023-10-19T11:54:33;153391.16;;;17.00;100.00
10006;BME280;5042;42.626;23.382;2023-10-19T11:57:00;153372.91;;;16.92;100.00
10006;BME280;5042;42.626;23.382;2023-10-19T11:59:28;153365.06;;;16.89;100.00
10006;BME280;5042;42.626;23.382;2023-10-19T12:01:56;153352.03;;;16.84;100.00
10006;BME280;5042;42.626;23.382;2023-10-19T12:04:24;153374.19;;;16.93;100.00
10006;BME280;5042;42.626;23.382;2023-10-19T12:06:51;153395.03;;;17.01;100.00
10006;BME280;5042;42.626;23.382;2023-10-19T12:09:18;153405.47;;;17.05;100.00
10006;BME280;5042;42.626;23.382;2023-10-19T12:11:49;153387.22;;;16.98;100.00
10006;BME280;5042;42.626;23.382;2023-10-19T12:14:18;153362.47;;;16.88;100.00
10006;BME280;5042;42.626;23.382;2023-10-19T12:16:46;153370.28;;;16.91;100.00
10006;BME280;5042;42.626;23.382;2023-10-19T12:19:15;153359.88;;;16.87;100.00
10006;BME280;5042;42.626;23.382;2023-10-19T12:21:43;153378.13;;;16.94;100.00
10006;BME280;5042;42.626;23.382;2023-10-19T12:24:10;153432.84;;;17.16;100.00
10006;BME280;5042;42.626;23.382;2023-10-19T12:26:37;153457.59;;;17.26;100.00
10006;BME280;5042;42.626;23.382;2023-10-19T12:29:04;153474.56;;;17.32;100.00
10006;BME280;5042;42.626;23.382;2023-10-19T12:31:34;153461.47;;;17.27;100.00
10006;BME280;5042;42.626;23.382;2023-10-19T12:34:05;153494.09;;;17.40;100.00
10006;BME280;5042;42.626;23.382;2023-10-19T12:36:34;153516.25;;;17.49;100.00
10006;BME280;5042;42.626;23.382;2023-10-19T12:39:01;153509.69;;;17.46;100.00
10006;BME280;5042;42.626;23.382;2023-10-19T12:41:30;153554.06;;;17.64;100.00
10006;BME280;5042;42.626;23.382;2023-10-19T12:43:58;153531.88;;;17.55;100.00
10006;BME280;5042;42.626;23.382;2023-10-19T12:46:27;153586.63;;;17.76;100.00
10006;BME280;5042;42.626;23.382;2023-10-19T12:48:55;153631.03;;;17.94;100.00
10006;BME280;5042;42.626;23.382;2023-10-19T12:51:24;153684.44;;;18.15;100.00
10006;BME280;5042;42.626;23.382;2023-10-19T12:53:53;153730.09;;;18.33;100.00
10006;BME280;5042;42.626;23.382;2023-10-19T12:56:20;153754.88;;;18.42;100.00
10006;BME280;5042;42.626;23.382;2023-10-19T12:58:50;153714.44;;;18.27;100.00
10006;BME280;5042;42.626;23.382;2023-10-19T13:01:16;153788.81;;;18.56;100.00
10006;BME280;5042;42.626;23.382;2023-10-19T13:03:45;153868.44;;;18.87;100.00
10006;BME280;5042;42.626;23.382;2023-10-19T13:06:12;153940.19;;;19.15;100.00
10006;BME280;5042;42.626;23.382;2023-10-19T13:08:39;153972.81;;;19.28;98.02
10006;BME280;5042;42.626;23.382;2023-10-19T13:11:09;154032.84;;;19.52;92.66
10006;BME280;5042;42.626;23.382;2023-10-19T13:13:39;153998.88;;;19.38;90.90
10006;BME280;5042;42.626;23.382;2023-10-19T13:16:06;153964.97;;;19.25;94.78
10006;BME280;5042;42.626;23.382;2023-10-19T13:18:34;153918.00;;;19.06;93.13
10006;BME280;5042;42.626;23.382;2023-10-19T13:21:01;153906.25;;;19.02;96.35
10006;BME280;5042;42.626;23.382;2023-10-19T13:23:30;153918.00;;;19.06;96.42